createdAt,value
2018-09-27T00:00:30.901Z,15.89
2018-09-27T00:01:30.844Z,15.92
2018-09-27T00:03:23.827Z,15.94
2018-09-27T00:04:23.823Z,16.00
2018-09-27T00:06:16.702Z,16.14
2018-09-27T00:07:16.702Z,16.02
2018-09-27T00:09:09.661Z,15.94
2018-09-27T00:10:09.672Z,16.01
2018-09-27T00:12:02.552Z,16.04
2018-09-27T00:13:02.584Z,16.07
2018-09-27T00:14:55.458Z,16.15
2018-09-27T00:15:55.490Z,16.11
2018-09-27T00:17:48.395Z,16.21
2018-09-27T00:18:48.433Z,16.17
2018-09-27T00:20:41.315Z,16.20
2018-09-27T00:21:41.342Z,16.11
2018-09-27T00:23:34.228Z,16.23
2018-09-27T00:24:34.265Z,16.14
2018-09-27T00:26:27.163Z,16.11
2018-09-27T00:27:27.173Z,16.20
2018-09-27T00:29:20.093Z,16.17
2018-09-27T00:30:20.102Z,16.20
2018-09-27T00:32:13.206Z,16.24
2018-09-27T00:33:13.229Z,16.15
2018-09-27T00:35:06.143Z,16.17
2018-09-27T00:36:06.154Z,16.17
2018-09-27T00:37:59.062Z,16.25
2018-09-27T00:38:59.081Z,16.20
2018-09-27T00:40:51.998Z,16.21
2018-09-27T00:41:52.007Z,16.28
2018-09-27T00:43:44.938Z,16.30
2018-09-27T00:44:44.940Z,16.38
2018-09-27T00:46:37.857Z,16.34
2018-09-27T00:47:37.868Z,16.38
2018-09-27T00:49:30.796Z,16.34
2018-09-27T00:50:30.817Z,16.31
2018-09-27T00:52:23.702Z,16.41
2018-09-27T00:53:23.723Z,16.43
2018-09-27T00:55:16.637Z,16.31
2018-09-27T00:56:16.652Z,16.31
2018-09-27T00:58:09.640Z,16.39
2018-09-27T00:59:09.576Z,16.35
2018-09-27T01:01:02.489Z,16.39
2018-09-27T01:02:02.504Z,16.38
2018-09-27T01:03:55.404Z,16.45
2018-09-27T01:04:55.431Z,16.41
2018-09-27T01:06:48.364Z,16.41
2018-09-27T01:07:48.363Z,16.53
2018-09-27T01:09:41.273Z,16.39
2018-09-27T01:10:41.292Z,16.49
2018-09-27T01:12:34.231Z,16.57
2018-09-27T01:13:34.223Z,16.42
2018-09-27T01:15:27.155Z,16.49
2018-09-27T01:16:27.154Z,16.45
2018-09-27T01:18:20.063Z,16.49
2018-09-27T01:19:20.083Z,16.45
2018-09-27T01:21:12.998Z,16.39
2018-09-27T01:22:13.010Z,16.53
2018-09-27T01:24:05.919Z,16.56
2018-09-27T01:25:05.937Z,16.50
2018-09-27T01:26:59.054Z,16.50
2018-09-27T01:27:59.068Z,16.46
2018-09-27T01:29:51.979Z,16.42
2018-09-27T01:30:51.989Z,16.45
2018-09-27T01:32:44.911Z,16.43
2018-09-27T01:33:44.918Z,16.50
2018-09-27T01:35:37.827Z,16.52
2018-09-27T01:36:37.851Z,16.50
2018-09-27T01:38:30.765Z,16.48
2018-09-27T01:39:30.777Z,16.45
2018-09-27T01:41:23.692Z,16.49
2018-09-27T01:42:23.703Z,16.46
2018-09-27T01:44:16.610Z,16.52
2018-09-27T01:45:16.632Z,16.60
2018-09-27T01:47:09.583Z,16.63
2018-09-27T01:48:09.559Z,16.53
2018-09-27T01:50:02.474Z,16.57
2018-09-27T01:51:02.485Z,16.46
2018-09-27T01:52:55.401Z,16.53
2018-09-27T01:53:55.414Z,16.57
2018-09-27T01:55:48.320Z,16.53
2018-09-27T01:56:48.341Z,16.58
2018-09-27T01:58:41.459Z,16.53
2018-09-27T01:59:41.472Z,16.45
2018-09-27T02:01:34.397Z,16.60
2018-09-27T02:02:34.404Z,16.57
2018-09-27T02:04:27.311Z,16.57
2018-09-27T02:05:27.331Z,16.61
2018-09-27T02:07:20.244Z,16.60
2018-09-27T02:08:20.259Z,16.63
2018-09-27T02:10:13.169Z,16.63
2018-09-27T02:11:13.184Z,16.61
2018-09-27T02:13:06.103Z,16.60
2018-09-27T02:14:06.131Z,16.63
2018-09-27T02:15:59.020Z,16.57
2018-09-27T02:16:59.042Z,16.60
2018-09-27T02:18:51.959Z,16.57
2018-09-27T02:19:51.971Z,16.52
2018-09-27T02:21:44.902Z,16.49
2018-09-27T02:22:44.924Z,16.45
2018-09-27T02:24:37.845Z,16.46
2018-09-27T02:25:37.856Z,16.45
2018-09-27T02:27:30.783Z,16.45
2018-09-27T02:28:30.789Z,16.48
2018-09-27T02:30:23.693Z,16.53
2018-09-27T02:31:23.714Z,16.50
2018-09-27T02:33:16.632Z,16.58
2018-09-27T02:34:16.642Z,16.52
2018-09-27T02:36:09.555Z,16.53
2018-09-27T02:37:09.580Z,16.56
2018-09-27T02:39:02.495Z,16.60
2018-09-27T02:40:02.509Z,16.63
2018-09-27T02:41:55.608Z,16.53
2018-09-27T02:42:55.633Z,16.57
2018-09-27T02:44:48.549Z,16.56
2018-09-27T02:45:48.569Z,16.57
2018-09-27T02:47:41.479Z,16.53
2018-09-27T02:48:41.489Z,16.52
2018-09-27T02:50:34.391Z,16.52
2018-09-27T02:51:34.415Z,16.43
2018-09-27T02:53:27.331Z,16.45
2018-09-27T02:54:27.342Z,16.50
2018-09-27T02:56:20.245Z,16.50
2018-09-27T02:57:20.268Z,16.49
2018-09-27T02:59:13.183Z,16.52
2018-09-27T03:00:13.193Z,16.52
2018-09-27T03:02:06.101Z,16.53
2018-09-27T03:03:06.120Z,16.63
2018-09-27T03:04:59.073Z,16.66
2018-09-27T03:05:59.045Z,16.60
2018-09-27T03:07:51.956Z,16.71
2018-09-27T03:08:51.975Z,16.67
2018-09-27T03:10:44.891Z,16.61
2018-09-27T03:11:44.903Z,16.64
2018-09-27T03:13:37.996Z,16.66
2018-09-27T03:14:38.017Z,16.64
2018-09-27T03:16:30.906Z,16.78
2018-09-27T03:17:30.930Z,16.78
2018-09-27T03:19:23.840Z,16.75
2018-09-27T03:20:23.847Z,16.70
2018-09-27T03:22:16.758Z,16.71
2018-09-27T03:23:16.793Z,16.71
2018-09-27T03:25:09.694Z,16.75
2018-09-27T03:26:09.705Z,16.71
2018-09-27T03:28:02.611Z,16.78
2018-09-27T03:29:02.632Z,16.67
2018-09-27T03:30:55.567Z,16.66
2018-09-27T03:31:55.584Z,16.68
2018-09-27T03:33:48.494Z,16.66
2018-09-27T03:34:48.507Z,16.68
2018-09-27T03:36:41.411Z,16.64
2018-09-27T03:37:41.433Z,16.56
2018-09-27T03:39:34.356Z,16.56
2018-09-27T03:40:34.448Z,16.53
2018-09-27T03:42:27.265Z,16.42
2018-09-27T03:43:27.287Z,16.46
2018-09-27T03:45:20.200Z,16.41
2018-09-27T03:46:20.220Z,16.46
2018-09-27T03:48:13.121Z,16.43
2018-09-27T03:49:13.140Z,16.43
2018-09-27T03:51:06.060Z,16.41
2018-09-27T03:52:06.068Z,16.46
2018-09-27T03:53:58.989Z,16.24
2018-09-27T03:54:59.004Z,16.28
2018-09-27T03:56:51.915Z,16.21
2018-09-27T03:57:51.958Z,16.15
2018-09-27T03:59:44.849Z,16.23
2018-09-27T04:00:44.965Z,16.27
2018-09-27T04:02:37.771Z,16.27
2018-09-27T04:03:37.787Z,16.25
2018-09-27T04:05:30.768Z,16.33
2018-09-27T04:06:30.740Z,16.34
2018-09-27T04:08:23.660Z,16.31
2018-09-27T04:09:23.666Z,16.31
2018-09-27T04:11:16.639Z,16.34
2018-09-27T04:12:16.604Z,16.35
2018-09-27T04:14:09.535Z,16.39
2018-09-27T04:15:09.522Z,16.30
2018-09-27T04:17:02.500Z,16.30
2018-09-27T04:18:09.600Z,16.38
2018-09-27T04:20:02.572Z,16.35
2018-09-27T04:20:55.395Z,16.30
2018-09-27T04:22:48.310Z,16.43
2018-09-27T04:23:48.316Z,16.28
2018-09-27T04:25:41.247Z,16.24
2018-09-27T04:26:41.236Z,16.17
2018-09-27T04:28:34.183Z,16.21
2018-09-27T04:29:34.162Z,16.20
2018-09-27T04:31:27.126Z,16.21
2018-09-27T04:32:27.091Z,16.11
2018-09-27T04:34:20.018Z,16.20
2018-09-27T04:35:20.028Z,16.20
2018-09-27T04:37:12.957Z,16.15
2018-09-27T04:38:12.942Z,16.21
2018-09-27T04:40:05.906Z,16.17
2018-09-27T04:41:05.899Z,16.20
2018-09-27T04:42:58.788Z,16.25
2018-09-27T04:43:58.807Z,16.17
2018-09-27T04:45:51.812Z,16.30
2018-09-27T04:46:51.723Z,16.28
2018-09-27T04:48:44.632Z,16.31
2018-09-27T04:49:44.683Z,16.34
2018-09-27T04:51:37.827Z,16.38
2018-09-27T04:52:37.802Z,16.38
2018-09-27T04:54:30.745Z,16.31
2018-09-27T04:55:30.725Z,16.30
2018-09-27T04:57:23.707Z,16.49
2018-09-27T04:58:23.651Z,16.41
2018-09-27T05:00:16.610Z,16.50
2018-09-27T05:01:16.571Z,16.49
2018-09-27T05:03:09.496Z,16.42
2018-09-27T05:04:09.513Z,16.46
2018-09-27T05:06:02.470Z,16.48
2018-09-27T05:07:02.447Z,16.46
2018-09-27T05:08:55.350Z,16.53
2018-09-27T05:09:55.341Z,16.49
2018-09-27T05:11:48.279Z,16.48
2018-09-27T05:12:48.296Z,16.48
2018-09-27T05:14:41.214Z,16.39
2018-09-27T05:15:41.223Z,16.52
2018-09-27T05:17:34.197Z,16.48
2018-09-27T05:18:34.162Z,16.50
2018-09-27T05:20:27.079Z,16.43
2018-09-27T05:21:27.145Z,16.49
2018-09-27T05:23:19.992Z,16.49
2018-09-27T05:24:20.024Z,16.48
2018-09-27T05:26:12.990Z,16.49
2018-09-27T05:27:12.934Z,16.50
2018-09-27T05:29:05.852Z,16.50
2018-09-27T05:30:05.867Z,16.48
2018-09-27T05:31:58.833Z,16.49
2018-09-27T05:32:58.769Z,16.56
2018-09-27T05:34:51.709Z,16.48
2018-09-27T05:35:51.741Z,16.42
2018-09-27T05:37:44.689Z,16.53
2018-09-27T05:38:44.648Z,16.45
2018-09-27T05:40:37.556Z,16.52
2018-09-27T05:41:37.571Z,16.45
2018-09-27T05:43:30.537Z,16.53
2018-09-27T05:44:30.503Z,16.49
2018-09-27T05:46:23.453Z,16.49
2018-09-27T05:47:23.436Z,16.52
2018-09-27T05:49:16.330Z,16.49
2018-09-27T05:50:16.348Z,16.48
2018-09-27T05:52:09.334Z,16.58
2018-09-27T05:53:09.316Z,16.64
2018-09-27T05:55:02.232Z,16.75
2018-09-27T05:56:02.283Z,16.75
2018-09-27T05:57:55.166Z,16.76
2018-09-27T05:58:55.171Z,16.78
2018-09-27T06:00:48.045Z,16.93
2018-09-27T06:01:48.082Z,16.89
2018-09-27T06:03:41.135Z,16.83
2018-09-27T06:04:41.005Z,16.82
2018-09-27T06:06:33.971Z,16.86
2018-09-27T06:07:33.929Z,16.93
2018-09-27T06:09:26.891Z,16.86
2018-09-27T06:10:26.876Z,16.91
2018-09-27T06:12:19.832Z,16.86
2018-09-27T06:13:19.858Z,16.85
2018-09-27T06:15:12.718Z,16.83
2018-09-27T06:16:12.754Z,16.85
2018-09-27T06:18:05.705Z,16.85
2018-09-27T06:19:05.692Z,16.94
2018-09-27T06:20:58.591Z,16.96
2018-09-27T06:21:58.633Z,17.00
2018-09-27T06:23:52.080Z,16.97
2018-09-27T06:24:51.551Z,16.93
2018-09-27T06:26:44.454Z,17.00
2018-09-27T06:27:44.485Z,17.01
2018-09-27T06:29:37.444Z,17.01
2018-09-27T06:30:37.397Z,16.98
2018-09-27T06:32:30.336Z,17.04
2018-09-27T06:33:30.355Z,17.07
2018-09-27T06:35:23.238Z,17.08
2018-09-27T06:36:23.257Z,17.16
2018-09-27T06:38:16.203Z,17.22
2018-09-27T06:39:16.184Z,17.19
2018-09-27T06:41:09.098Z,17.28
2018-09-27T06:42:09.105Z,17.26
2018-09-27T06:44:03.256Z,17.31
2018-09-27T06:45:03.219Z,17.31
2018-09-27T06:48:49.520Z,17.46
2018-09-27T06:50:15.154Z,17.44
2018-09-27T06:51:15.174Z,17.41
2018-09-27T06:53:08.132Z,17.54
2018-09-27T06:54:08.124Z,17.54
2018-09-27T06:56:02.229Z,17.46
2018-09-27T06:57:01.041Z,17.55
2018-09-27T06:58:53.954Z,17.56
2018-09-27T06:59:53.970Z,17.63
2018-09-27T07:01:46.950Z,17.78
2018-09-27T07:02:46.909Z,17.71
2018-09-27T07:04:39.884Z,17.71
2018-09-27T07:05:39.842Z,17.77
2018-09-27T07:07:32.750Z,17.87
2018-09-27T07:08:32.790Z,17.86
2018-09-27T07:10:25.720Z,17.92
2018-09-27T07:11:25.673Z,17.96
2018-09-27T07:13:18.636Z,17.93
2018-09-27T07:14:18.628Z,17.90
2018-09-27T07:16:11.545Z,17.92
2018-09-27T07:17:11.561Z,17.93
2018-09-27T07:19:04.535Z,17.99
2018-09-27T07:20:04.509Z,18.10
2018-09-27T07:21:57.429Z,18.08
2018-09-27T07:22:57.453Z,18.18
2018-09-27T07:24:50.426Z,18.29
2018-09-27T07:25:50.368Z,18.20
2018-09-27T07:27:43.296Z,18.23
2018-09-27T07:28:43.313Z,18.21
2018-09-27T07:30:36.241Z,18.27
2018-09-27T07:31:36.237Z,18.17
2018-09-27T07:33:29.196Z,18.21
2018-09-27T07:34:29.171Z,18.29
2018-09-27T07:36:22.081Z,18.55
2018-09-27T07:37:22.102Z,18.55
2018-09-27T07:39:15.077Z,18.63
2018-09-27T07:40:15.041Z,18.60
2018-09-27T07:42:07.966Z,18.73
2018-09-27T07:43:07.971Z,18.63
2018-09-27T07:45:00.925Z,18.73
2018-09-27T07:46:00.916Z,18.84
2018-09-27T07:47:53.838Z,18.95
2018-09-27T07:48:53.863Z,18.95
2018-09-27T07:50:46.809Z,19.13
2018-09-27T07:51:46.786Z,19.21
2018-09-27T07:53:39.700Z,19.37
2018-09-27T07:54:39.769Z,19.46
2018-09-27T07:56:32.739Z,19.51
2018-09-27T07:57:32.661Z,19.59
2018-09-27T07:59:25.633Z,19.86
2018-09-27T08:00:25.595Z,19.92
2018-09-27T08:02:18.521Z,19.95
2018-09-27T08:03:18.542Z,19.95
2018-09-27T08:05:11.509Z,20.03
2018-09-27T08:06:12.021Z,20.16
2018-09-27T08:08:04.397Z,20.13
2018-09-27T08:09:04.424Z,20.17
2018-09-27T08:10:57.422Z,20.21
2018-09-27T08:11:57.410Z,20.20
2018-09-27T08:13:50.274Z,20.21
2018-09-27T08:14:50.305Z,20.26
2018-09-27T08:16:43.273Z,20.36
2018-09-27T08:17:43.231Z,20.38
2018-09-27T08:19:36.173Z,20.29
2018-09-27T08:20:36.765Z,20.33
2018-09-27T08:22:29.128Z,20.50
2018-09-27T08:23:29.116Z,20.39
2018-09-27T08:25:22.020Z,20.28
2018-09-27T08:26:22.064Z,20.26
2018-09-27T08:28:15.027Z,20.17
2018-09-27T08:29:14.996Z,20.20
2018-09-27T08:31:07.938Z,20.23
2018-09-27T08:32:07.923Z,20.31
2018-09-27T08:34:00.894Z,20.33
2018-09-27T08:35:00.865Z,20.39
2018-09-27T08:36:53.833Z,20.18
2018-09-27T08:37:53.797Z,20.18
2018-09-27T08:39:46.699Z,20.24
2018-09-27T08:40:46.735Z,20.16
2018-09-27T08:42:39.701Z,20.32
2018-09-27T08:43:39.658Z,20.16
2018-09-27T08:45:32.741Z,20.16
2018-09-27T08:46:32.622Z,20.18
2018-09-27T08:48:25.541Z,20.17
2018-09-27T08:49:25.552Z,20.17
2018-09-27T08:51:18.467Z,20.29
2018-09-27T08:52:18.496Z,20.28
2018-09-27T08:54:11.965Z,20.33
2018-09-27T08:55:11.421Z,20.38
2018-09-27T08:57:04.411Z,20.39
2018-09-27T08:58:04.364Z,20.32
2018-09-27T08:59:57.278Z,20.29
2018-09-27T09:00:57.294Z,20.24
2018-09-27T09:02:50.268Z,20.28
2018-09-27T09:03:50.248Z,20.26
2018-09-27T09:05:43.147Z,20.41
2018-09-27T09:06:43.175Z,20.47
2018-09-27T09:08:36.129Z,20.42
2018-09-27T09:09:36.132Z,20.52
2018-09-27T09:11:29.025Z,20.43
2018-09-27T09:12:29.046Z,20.42
2018-09-27T09:14:22.005Z,20.52
2018-09-27T09:15:21.989Z,20.50
2018-09-27T09:17:14.882Z,20.61
2018-09-27T09:18:14.900Z,20.55
2018-09-27T09:20:07.879Z,20.74
2018-09-27T09:21:07.835Z,20.72
2018-09-27T09:23:00.816Z,20.87
2018-09-27T09:24:00.788Z,20.91
2018-09-27T09:25:53.734Z,20.92
2018-09-27T09:26:53.716Z,20.97
2018-09-27T09:28:47.307Z,21.07
2018-09-27T09:29:46.665Z,21.07
2018-09-27T09:31:39.577Z,21.19
2018-09-27T09:32:39.580Z,21.17
2018-09-27T09:34:32.542Z,21.25
2018-09-27T09:35:32.547Z,21.31
2018-09-27T09:37:25.433Z,21.35
2018-09-27T09:38:25.444Z,21.27
2018-09-27T09:40:18.394Z,21.28
2018-09-27T09:41:18.386Z,21.35
2018-09-27T09:43:11.300Z,21.43
2018-09-27T09:44:11.347Z,21.42
2018-09-27T09:46:04.251Z,21.31
2018-09-27T09:47:04.251Z,21.43
2018-09-27T09:48:57.237Z,21.46
2018-09-27T09:49:57.184Z,21.47
2018-09-27T09:51:50.093Z,21.53
2018-09-27T09:52:50.143Z,21.59
2018-09-27T09:54:43.092Z,21.68
2018-09-27T09:55:43.091Z,21.77
2018-09-27T09:57:36.012Z,21.80
2018-09-27T09:58:36.007Z,21.86
2018-09-27T10:00:29.053Z,21.92
2018-09-27T10:01:28.995Z,21.98
2018-09-27T10:03:21.909Z,22.00
2018-09-27T10:04:21.888Z,21.99
2018-09-27T10:06:14.785Z,21.98
2018-09-27T10:07:14.828Z,22.00
2018-09-27T10:09:08.750Z,22.03
2018-09-27T10:10:08.778Z,21.99
2018-09-27T10:12:01.750Z,22.10
2018-09-27T10:13:02.229Z,22.14
2018-09-27T10:14:54.687Z,22.17
2018-09-27T10:15:54.637Z,22.24
2018-09-27T10:17:47.544Z,22.24
2018-09-27T10:18:47.585Z,22.27
2018-09-27T10:20:40.597Z,22.27
2018-09-27T10:21:40.570Z,22.28
2018-09-27T10:23:33.430Z,22.33
2018-09-27T10:24:33.453Z,22.31
2018-09-27T10:26:26.403Z,22.46
2018-09-27T10:27:26.412Z,22.47
2018-09-27T10:29:19.315Z,22.49
2018-09-27T10:30:19.862Z,22.45
2018-09-27T10:32:12.309Z,22.40
2018-09-27T10:33:12.308Z,22.30
2018-09-27T10:35:05.220Z,22.46
2018-09-27T10:36:05.235Z,22.35
2018-09-27T10:37:58.218Z,22.54
2018-09-27T10:38:58.173Z,22.58
2018-09-27T10:40:51.134Z,22.58
2018-09-27T10:41:51.108Z,22.58
2018-09-27T10:43:44.014Z,22.75
2018-09-27T10:44:44.052Z,22.77
2018-09-27T10:46:37.025Z,22.85
2018-09-27T10:47:36.990Z,22.85
2018-09-27T10:49:29.893Z,22.88
2018-09-27T10:50:29.934Z,22.85
2018-09-27T10:52:22.891Z,22.85
2018-09-27T10:53:22.864Z,22.83
2018-09-27T10:55:15.762Z,22.94
2018-09-27T10:56:15.840Z,22.97
2018-09-27T10:58:08.776Z,22.92
2018-09-27T10:59:08.722Z,23.00
2018-09-27T11:01:01.678Z,23.04
2018-09-27T11:02:01.671Z,23.07
2018-09-27T11:03:54.666Z,23.04
2018-09-27T11:04:54.639Z,23.02
2018-09-27T11:06:47.515Z,23.10
2018-09-27T11:07:47.582Z,23.13
2018-09-27T11:09:40.496Z,23.25
2018-09-27T11:10:40.526Z,23.19
2018-09-27T11:12:33.439Z,23.27
2018-09-27T11:13:33.409Z,23.28
2018-09-27T11:15:26.326Z,23.33
2018-09-27T11:16:26.425Z,23.43
2018-09-27T11:18:19.321Z,23.53
2018-09-27T11:19:19.322Z,23.47
2018-09-27T11:21:12.217Z,23.55
2018-09-27T11:22:12.295Z,23.53
2018-09-27T11:24:05.250Z,23.58
2018-09-27T11:25:05.189Z,23.48
2018-09-27T11:26:58.093Z,23.47
2018-09-27T11:27:58.132Z,23.36
2018-09-27T11:29:51.127Z,23.32
2018-09-27T11:30:51.101Z,23.27
2018-09-27T11:32:44.051Z,23.33
2018-09-27T11:33:44.043Z,23.36
2018-09-27T11:35:36.961Z,23.53
2018-09-27T11:36:36.994Z,23.47
2018-09-27T11:38:29.971Z,23.58
2018-09-27T11:39:29.936Z,23.60
2018-09-27T11:41:22.831Z,23.57
2018-09-27T11:42:23.482Z,23.69
2018-09-27T11:44:15.949Z,23.76
2018-09-27T11:45:15.804Z,23.72
2018-09-27T11:47:08.687Z,23.70
2018-09-27T11:48:08.746Z,23.72
2018-09-27T11:50:01.926Z,23.79
2018-09-27T11:51:01.688Z,23.84
2018-09-27T11:52:54.599Z,23.87
2018-09-27T11:53:54.634Z,23.80
2018-09-27T11:55:47.589Z,23.90
2018-09-27T11:56:47.557Z,23.91
2018-09-27T11:58:40.480Z,24.02
2018-09-27T11:59:40.534Z,24.12
2018-09-27T12:01:33.557Z,24.13
2018-09-27T12:02:33.442Z,24.03
2018-09-27T12:04:26.406Z,23.91
2018-09-27T12:05:26.397Z,23.90
2018-09-27T12:07:19.390Z,23.98
2018-09-27T12:08:19.316Z,24.06
2018-09-27T12:10:12.274Z,24.13
2018-09-27T12:11:12.267Z,24.15
2018-09-27T12:13:05.216Z,24.13
2018-09-27T12:14:05.185Z,24.20
2018-09-27T12:15:58.145Z,24.21
2018-09-27T12:16:58.128Z,24.28
2018-09-27T12:18:51.061Z,24.34
2018-09-27T12:19:51.075Z,24.13
2018-09-27T12:21:44.024Z,24.15
2018-09-27T12:22:44.026Z,24.10
2018-09-27T12:24:36.968Z,24.15
2018-09-27T12:25:36.979Z,24.10
2018-09-27T12:27:29.907Z,24.16
2018-09-27T12:28:29.947Z,24.13
2018-09-27T12:30:22.868Z,24.13
2018-09-27T12:31:22.928Z,24.20
2018-09-27T12:33:15.792Z,24.16
2018-09-27T12:34:15.837Z,24.24
2018-09-27T12:36:08.765Z,24.30
2018-09-27T12:37:08.750Z,24.28
2018-09-27T12:39:01.701Z,24.25
2018-09-27T12:40:01.705Z,24.21
2018-09-27T12:41:54.779Z,24.28
2018-09-27T12:42:54.653Z,24.21
2018-09-27T12:44:47.584Z,24.25
2018-09-27T12:45:47.622Z,24.24
2018-09-27T12:47:40.550Z,24.43
2018-09-27T12:48:40.660Z,24.47
2018-09-27T12:50:33.547Z,24.50
2018-09-27T12:51:33.539Z,24.49
2018-09-27T12:53:26.400Z,24.52
2018-09-27T12:54:26.425Z,24.53
2018-09-27T12:56:19.412Z,24.47
2018-09-27T12:57:19.338Z,24.47
2018-09-27T12:59:12.269Z,24.47
2018-09-27T13:00:12.333Z,24.45
2018-09-27T13:03:36.854Z,24.28
2018-09-27T13:04:36.873Z,24.15
2018-09-27T13:06:29.793Z,24.22
2018-09-27T13:07:29.837Z,24.27
2018-09-27T13:09:23.056Z,24.45
2018-09-27T13:10:22.868Z,24.45
2018-09-27T13:12:15.736Z,24.45
2018-09-27T13:13:15.853Z,24.35
2018-09-27T13:15:08.748Z,24.37
2018-09-27T13:16:08.774Z,24.47
2018-09-27T13:18:01.580Z,24.46
2018-09-27T13:19:01.642Z,24.39
2018-09-27T13:20:54.569Z,24.43
2018-09-27T13:21:54.496Z,24.42
2018-09-27T13:23:47.454Z,24.53
2018-09-27T13:24:47.533Z,24.46
2018-09-27T13:26:40.431Z,24.49
2018-09-27T13:27:40.408Z,24.50
2018-09-27T13:29:33.321Z,24.60
2018-09-27T13:30:33.331Z,24.65
2018-09-27T13:32:26.275Z,24.68
2018-09-27T13:33:26.314Z,24.71
2018-09-27T13:35:19.327Z,24.77
2018-09-27T13:36:19.264Z,24.77
2018-09-27T13:38:12.224Z,24.81
2018-09-27T13:39:12.379Z,24.76
2018-09-27T13:41:05.144Z,24.77
2018-09-27T13:42:05.135Z,24.81
2018-09-27T13:43:58.079Z,24.90
2018-09-27T13:44:58.134Z,25.05
2018-09-27T13:46:51.025Z,24.98
2018-09-27T13:47:51.019Z,24.91
2018-09-27T13:49:43.991Z,24.98
2018-09-27T13:50:44.013Z,24.93
2018-09-27T13:52:36.921Z,24.84
2018-09-27T13:53:36.947Z,24.83
2018-09-27T13:55:29.958Z,24.90
2018-09-27T13:56:29.889Z,24.88
2018-09-27T13:58:22.840Z,24.91
2018-09-27T13:59:22.789Z,24.91
2018-09-27T14:01:15.846Z,24.90
2018-09-27T14:02:15.741Z,24.90
2018-09-27T14:04:08.659Z,24.83
2018-09-27T14:05:08.690Z,24.62
2018-09-27T14:07:01.632Z,24.61
2018-09-27T14:08:01.635Z,24.55
2018-09-27T14:09:54.557Z,24.50
2018-09-27T14:10:54.587Z,24.52
2018-09-27T14:12:47.507Z,24.50
2018-09-27T14:13:47.526Z,24.57
2018-09-27T14:15:40.452Z,24.60
2018-09-27T14:16:40.464Z,24.50
2018-09-27T14:18:33.386Z,24.53
2018-09-27T14:19:33.412Z,24.57
2018-09-27T14:21:26.336Z,24.47
2018-09-27T14:22:26.356Z,24.52
2018-09-27T14:24:19.268Z,24.53
2018-09-27T14:25:19.294Z,24.64
2018-09-27T14:27:12.234Z,24.62
2018-09-27T14:28:12.250Z,24.65
2018-09-27T14:30:05.173Z,24.52
2018-09-27T14:31:05.201Z,24.47
2018-09-27T14:32:58.119Z,24.55
2018-09-27T14:33:58.138Z,24.53
2018-09-27T14:35:51.056Z,24.46
2018-09-27T14:36:51.080Z,24.40
2018-09-27T14:38:44.005Z,24.27
2018-09-27T14:39:44.024Z,24.45
2018-09-27T14:41:37.055Z,24.37
2018-09-27T14:42:37.020Z,24.39
2018-09-27T14:44:29.881Z,24.50
2018-09-27T14:45:29.913Z,24.55
2018-09-27T14:47:22.834Z,24.53
2018-09-27T14:48:22.852Z,24.47
2018-09-27T14:50:15.825Z,24.45
2018-09-27T14:51:15.791Z,24.60
2018-09-27T14:53:08.716Z,24.53
2018-09-27T14:54:08.732Z,24.52
2018-09-27T14:56:01.676Z,24.52
2018-09-27T14:57:01.677Z,24.53
2018-09-27T14:58:54.627Z,24.43
2018-09-27T14:59:54.618Z,24.43
2018-09-27T15:01:47.558Z,24.46
2018-09-27T15:02:47.569Z,24.34
2018-09-27T15:04:40.544Z,24.37
2018-09-27T15:05:40.510Z,24.43
2018-09-27T15:07:33.422Z,24.37
2018-09-27T15:08:33.451Z,24.40
2018-09-27T15:10:26.487Z,24.32
2018-09-27T15:11:26.391Z,24.22
2018-09-27T15:13:19.318Z,24.21
2018-09-27T15:14:19.327Z,24.00
2018-09-27T15:16:12.255Z,24.00
2018-09-27T15:17:12.271Z,24.08
2018-09-27T15:19:05.194Z,23.88
2018-09-27T15:20:05.216Z,23.83
2018-09-27T15:21:58.151Z,23.88
2018-09-27T15:22:58.183Z,23.80
2018-09-27T15:24:51.103Z,23.79
2018-09-27T15:25:51.129Z,23.91
2018-09-27T15:27:44.040Z,24.00
2018-09-27T15:28:44.083Z,23.94
2018-09-27T15:30:37.046Z,24.00
2018-09-27T15:31:37.033Z,24.00
2018-09-27T15:33:29.948Z,23.85
2018-09-27T15:34:29.965Z,23.93
2018-09-27T15:36:22.871Z,23.90
2018-09-27T15:37:22.894Z,23.91
2018-09-27T15:39:15.810Z,23.84
2018-09-27T15:40:15.824Z,23.78
2018-09-27T15:42:08.777Z,23.84
2018-09-27T15:43:08.767Z,23.78
2018-09-27T15:45:01.688Z,23.78
2018-09-27T15:46:01.704Z,23.90
2018-09-27T15:47:54.634Z,23.98
2018-09-27T15:48:54.649Z,23.85
2018-09-27T15:50:47.569Z,23.87
2018-09-27T15:51:47.589Z,23.85
2018-09-27T15:53:40.514Z,23.84
2018-09-27T15:54:40.534Z,23.87
2018-09-27T15:56:33.445Z,23.73
2018-09-27T15:57:33.475Z,23.79
2018-09-27T15:59:26.404Z,23.79
2018-09-27T16:00:26.415Z,23.66
2018-09-27T16:02:19.329Z,23.58
2018-09-27T16:03:19.356Z,23.54
2018-09-27T16:05:12.360Z,23.54
2018-09-27T16:06:12.372Z,23.51
2018-09-27T16:08:05.231Z,23.53
2018-09-27T16:09:05.236Z,23.48
2018-09-27T16:10:58.159Z,23.50
2018-09-27T16:11:58.171Z,23.46
2018-09-27T16:13:51.100Z,23.38
2018-09-27T16:14:51.157Z,23.20
2018-09-27T16:16:44.207Z,23.13
2018-09-27T16:17:44.287Z,23.10
2018-09-27T16:19:37.153Z,22.90
2018-09-27T16:20:37.175Z,22.90
2018-09-27T16:22:30.090Z,22.94
2018-09-27T16:23:30.137Z,22.85
2018-09-27T16:25:23.049Z,22.88
2018-09-27T16:26:23.061Z,22.79
2018-09-27T16:28:15.965Z,22.73
2018-09-27T16:29:15.988Z,22.83
2018-09-27T16:31:08.957Z,22.65
2018-09-27T16:32:08.930Z,22.68
2018-09-27T16:34:01.891Z,22.58
2018-09-27T16:35:01.869Z,22.57
2018-09-27T16:36:54.780Z,22.45
2018-09-27T16:37:54.804Z,22.49
2018-09-27T16:39:47.733Z,22.35
2018-09-27T16:40:47.744Z,22.31
2018-09-27T16:42:40.649Z,22.30
2018-09-27T16:43:40.680Z,22.33
2018-09-27T16:45:33.626Z,22.21
2018-09-27T16:46:33.633Z,22.27
2018-09-27T16:48:26.547Z,22.22
2018-09-27T16:49:26.570Z,22.10
2018-09-27T16:51:19.518Z,22.12
2018-09-27T16:52:19.510Z,21.96
2018-09-27T16:54:12.426Z,21.96
2018-09-27T16:55:12.450Z,22.02
2018-09-27T16:57:05.375Z,21.84
2018-09-27T16:58:05.397Z,21.82
2018-09-27T16:59:58.314Z,21.77
2018-09-27T17:00:58.345Z,21.67
2018-09-27T17:02:51.463Z,21.59
2018-09-27T17:03:51.492Z,21.52
2018-09-27T17:05:44.411Z,21.40
2018-09-27T17:06:44.416Z,21.44
2018-09-27T17:08:37.327Z,21.42
2018-09-27T17:09:37.354Z,21.25
2018-09-27T17:11:30.271Z,21.21
2018-09-27T17:12:30.291Z,21.25
2018-09-27T17:14:23.198Z,21.17
2018-09-27T17:15:23.225Z,21.07
2018-09-27T17:17:16.182Z,21.04
2018-09-27T17:18:16.165Z,20.91
2018-09-27T17:20:09.073Z,20.85
2018-09-27T17:21:09.099Z,20.84
2018-09-27T17:23:02.038Z,20.73
2018-09-27T17:24:02.036Z,20.58
2018-09-27T17:25:54.972Z,20.57
2018-09-27T17:26:54.969Z,20.50
2018-09-27T17:28:47.881Z,20.31
2018-09-27T17:29:47.980Z,20.31
2018-09-27T17:31:40.885Z,20.17
2018-09-27T17:32:40.838Z,20.17
2018-09-27T17:34:33.795Z,19.99
2018-09-27T17:35:33.783Z,19.91
2018-09-27T17:37:26.719Z,19.76
2018-09-27T17:38:26.705Z,19.68
2018-09-27T17:40:19.696Z,19.68
2018-09-27T17:41:19.637Z,19.56
2018-09-27T17:43:12.555Z,19.39
2018-09-27T17:44:12.570Z,19.41
2018-09-27T17:46:05.629Z,19.32
2018-09-27T17:47:05.505Z,19.19
2018-09-27T17:48:58.429Z,19.10
2018-09-27T17:49:58.433Z,18.99
2018-09-27T17:51:51.357Z,18.94
2018-09-27T17:52:51.390Z,18.82
2018-09-27T17:54:44.287Z,18.75
2018-09-27T17:55:44.402Z,18.66
2018-09-27T17:57:37.241Z,18.52
2018-09-27T17:58:37.322Z,18.60
2018-09-27T18:00:30.191Z,18.54
2018-09-27T18:01:30.249Z,18.48
2018-09-27T18:03:23.163Z,18.35
2018-09-27T18:04:23.152Z,18.33
2018-09-27T18:06:16.052Z,18.20
2018-09-27T18:07:16.068Z,18.10
2018-09-27T18:09:08.997Z,18.03
2018-09-27T18:10:08.997Z,18.08
2018-09-27T18:12:01.907Z,17.95
2018-09-27T18:13:01.927Z,17.96
2018-09-27T18:14:54.844Z,17.93
2018-09-27T18:15:54.856Z,17.89
2018-09-27T18:17:47.881Z,17.78
2018-09-27T18:18:47.823Z,17.77
2018-09-27T18:20:40.693Z,17.74
2018-09-27T18:21:40.771Z,17.68
2018-09-27T18:23:33.629Z,17.71
2018-09-27T18:24:33.642Z,17.74
2018-09-27T18:26:26.554Z,17.62
2018-09-27T18:27:26.573Z,17.68
2018-09-27T18:29:19.503Z,17.58
2018-09-27T18:30:19.513Z,17.54
2018-09-27T18:32:12.429Z,17.48
2018-09-27T18:33:12.436Z,17.52
2018-09-27T18:35:06.346Z,17.40
2018-09-27T18:36:06.356Z,17.33